Date,TemperatureHighF,TemperatureAvgF,TemperatureLowF,DewpointHighF,DewpointAvgF,DewpointLowF,HumidityHigh,HumidityAvg,HumidityLow,PressureMaxIn,PressureMinIn,WindSpeedMaxMPH,WindSpeedAvgMPH,GustSpeedMaxMPH,PrecipitationSumIn
2013-4-1,47,41,35,34,26,20,74,56,38,30.24,29.95,12,6,18,0.00
2013-4-2,48,37,22,27,19,16,85,51,30,30.37,30.25,9,2,12,0.00
2013-4-3,52,42,30,29,24,19,69,51,35,30.41,30.25,12,3,20,0.00
2013-4-4,59,47,36,29,26,23,68,46,29,30.25,30.02,8,2,13,0.00
2013-4-5,68,53,38,39,35,26,78,52,30,30.18,30.00,7,2,12,0.00
2013-4-6,76,64,52,50,41,36,65,45,27,30.00,29.66,11,4,20,0.00
2013-4-7,78,66,50,59,50,45,84,60,32,29.89,29.71,12,4,18,0.00
2013-4-8,80,69,59,63,58,54,86,70,54,29.81,29.64,9,2,14,0.00
2013-4-9,79,70,65,64,61,58,84,73,59,29.82,29.75,12,3,16,0.00
2013-4-10,73,63,54,66,60,53,99,89,78,29.83,29.55,21,3,21,1.56
2013-4-11,56,45,40,56,41,32,100,86,72,29.73,29.62,12,4,18,0.12
2013-4-12,44,40,36,35,33,31,82,76,67,30.00,29.71,8,3,21,0.00
2013-4-13,61,48,35,42,37,33,91,67,44,30.06,29.88,9,3,15,0.00
2013-4-14,81,64,48,57,49,43,80,60,32,29.88,29.54,13,5,25,0.00
2013-4-15,64,58,49,62,55,47,98,92,72,30.01,29.69,13,3,26,0.24
2013-4-16,49,46,42,47,45,42,98,96,92,30.14,29.93,9,3,15,1.42
2013-4-17,84,58,47,71,55,46,100,92,60,30.12,29.63,11,4,17,0.10
2013-4-18,75,57,41,67,54,34,100,89,77,29.77,29.51,23,5,24,1.45
2013-4-19,50,43,37,32,30,28,76,62,44,30.05,29.73,20,6,33,0.00
2013-4-20,57,44,30,37,30,25,92,59,31,30.32,30.06,8,2,13,0.00
2013-4-21,62,52,43,45,39,34,72,62,48,30.40,30.22,14,7,19,0.00
2013-4-22,71,60,46,49,43,38,74,55,35,30.24,29.93,12,4,20,0.00
2013-4-23,60,49,39,54,46,38,99,89,65,30.03,29.87,13,4,18,0.61
2013-4-24,53,43,35,39,34,29,99,74,41,30.23,30.00,11,4,18,0.02
2013-4-25,65,51,38,38,34,31,81,55,32,30.34,30.21,11,2,16,0.00
2013-4-26,60,54,47,49,45,37,85,72,56,30.34,30.23,8,2,19,0.00
2013-4-27,53,51,48,52,50,46,99,95,85,30.26,29.92,6,2,8,0.75
2013-4-28,59,54,46,53,51,46,100,92,79,29.95,29.88,8,2,13,0.00
2013-4-29,81,64,46,64,57,46,99,79,51,29.91,29.71,11,3,16,0.00
2013-4-30,88,74,59,63,59,52,98,66,30,29.89,29.74,10,2,14,0.00